Time;durP1;ratioP1;P1;durP2;ratioP2;P2;SDS_P1;SDS_P2;PMS_P1;PMS_P2;Temp;Humidity;BMP_temperature;BMP_pressure;BME280_temperature;BME280_humidity;BME280_pressure;Samples;Min_cycle;Max_cycle;Signal;HPM_P1;HPM_P2
2022/03/27 00:00:15;;;;;;;10.50;4.93;;;;;;;19.60;50.33;101378.63;5031068;28;20178;-59
2022/03/27 00:02:41;;;;;;;12.50;5.30;;;;;;;19.62;50.25;101389.72;5031178;28;20191;-59
2022/03/27 00:05:08;;;;;;;11.53;5.23;;;;;;;19.62;50.13;101386.88;5031356;28;20415;-59
2022/03/27 00:07:34;;;;;;;10.90;4.77;;;;;;;19.61;50.62;101383.16;5031270;28;20667;-59
2022/03/27 00:09:59;;;;;;;10.13;3.97;;;;;;;19.62;50.14;101384.00;5030524;28;20415;-59
2022/03/27 00:12:24;;;;;;;11.17;4.93;;;;;;;19.60;50.29;101392.94;5030475;28;20165;-59
2022/03/27 00:14:50;;;;;;;13.77;4.20;;;;;;;19.63;50.18;101385.66;5031037;28;20203;-59
2022/03/27 00:17:15;;;;;;;16.07;4.93;;;;;;;19.61;50.12;101388.88;5030950;28;20183;-59
2022/03/27 00:19:41;;;;;;;9.73;4.60;;;;;;;19.61;50.31;101382.34;5031129;28;20710;-59
2022/03/27 00:22:06;;;;;;;10.07;4.87;;;;;;;19.62;50.27;101384.00;5031231;28;20184;-59
2022/03/27 00:24:32;;;;;;;19.83;4.67;;;;;;;19.62;50.40;101381.13;5032598;28;20176;-59
2022/03/27 00:26:57;;;;;;;11.00;4.60;;;;;;;19.61;50.24;101377.44;5034692;28;20177;-59
2022/03/27 00:29:23;;;;;;;8.40;3.83;;;;;;;19.60;50.15;101378.63;5034777;28;20599;-59
2022/03/27 00:31:48;;;;;;;10.27;4.90;;;;;;;19.59;50.31;101379.84;5034698;28;20643;-59
2022/03/27 00:34:14;;;;;;;11.50;4.60;;;;;;;19.59;50.38;101373.25;5034852;28;20537;-59
2022/03/27 00:36:39;;;;;;;9.80;4.83;;;;;;;19.61;50.18;101368.84;5034529;28;20192;-59
2022/03/27 00:39:05;;;;;;;9.90;4.73;;;;;;;19.63;50.39;101382.81;5034891;28;20183;-59
2022/03/27 00:41:30;;;;;;;9.23;4.70;;;;;;;19.61;50.41;101370.88;5034652;28;20183;-59
2022/03/27 00:43:56;;;;;;;7.23;4.17;;;;;;;19.62;50.25;101370.50;5034283;28;20172;-58
2022/03/27 00:46:22;;;;;;;10.20;4.57;;;;;;;19.58;50.39;101372.44;5034140;28;20228;-59
2022/03/27 00:48:47;;;;;;;10.40;4.63;;;;;;;19.58;50.39;101369.56;5034621;28;20651;-59
2022/03/27 00:51:13;;;;;;;14.73;4.40;;;;;;;19.58;50.22;101372.44;5034251;28;20196;-59
2022/03/27 00:53:38;;;;;;;11.73;5.03;;;;;;;19.60;50.19;101369.19;5032307;28;20188;-59
2022/03/27 00:56:04;;;;;;;11.10;3.80;;;;;;;19.59;50.29;101370.41;5034122;28;20670;-59
2022/03/27 00:58:29;;;;;;;8.80;4.83;;;;;;;19.59;50.49;101367.53;5034243;28;20246;-59
2022/03/27 01:01:11;;;;;;;11.90;5.27;;;;;;;19.58;50.40;101366.72;5034047;28;20176;-59
2022/03/27 01:03:37;;;;;;;12.00;5.43;;;;;;;19.57;50.48;101367.06;5014238;28;20199;-59
2022/03/27 01:06:02;;;;;;;13.30;5.00;;;;;;;19.58;50.56;101366.72;5014392;28;20907;-59
2022/03/27 01:11:18;;;;;;;12.30;4.80;;;;;;;19.58;50.43;101354.41;5014139;28;20196;-58
2022/03/27 01:13:46;;;;;;;10.93;4.27;;;;;;;19.57;50.50;101353.56;5014272;28;20463;-59
2022/03/27 01:16:30;;;;;;;15.23;4.17;;;;;;;19.57;50.51;101347.84;5023907;28;20495;-59
2022/03/27 01:18:56;;;;;;;9.83;4.50;;;;;;;19.56;50.57;101351.09;5016790;28;20928;-59
2022/03/27 01:21:21;;;;;;;9.30;4.23;;;;;;;19.57;50.34;101355.59;5033392;28;20419;-59
2022/03/27 01:23:47;;;;;;;10.20;4.97;;;;;;;19.56;50.53;101346.16;5033206;28;20624;-58
2022/03/27 01:26:12;;;;;;;10.73;4.80;;;;;;;19.56;50.82;101351.91;5033544;28;20199;-59
2022/03/27 01:28:37;;;;;;;9.80;4.20;;;;;;;19.55;50.50;101340.78;5033453;28;20168;-59
2022/03/27 01:31:07;;;;;;;14.40;4.33;;;;;;;19.56;50.40;101339.63;5033443;28;20180;-59
2022/03/27 01:33:32;;;;;;;12.57;5.10;;;;;;;19.55;50.46;101341.66;5033597;28;20259;-59
2022/03/27 01:35:58;;;;;;;9.10;4.60;;;;;;;19.54;50.69;101345.72;5032028;28;20459;-59
2022/03/27 01:38:23;;;;;;;13.00;4.37;;;;;;;19.55;50.43;101343.66;5033264;28;20521;-59
2022/03/27 01:40:49;;;;;;;10.63;4.30;;;;;;;19.53;50.54;101343.19;5033170;28;20188;-59
2022/03/27 01:43:14;;;;;;;9.03;3.80;;;;;;;19.54;50.55;101334.25;5033059;28;20176;-59
2022/03/27 01:45:41;;;;;;;10.93;4.37;;;;;;;19.54;50.32;101333.41;5015447;28;20196;-59
2022/03/27 01:48:06;;;;;;;8.37;4.50;;;;;;;19.52;50.77;101330.09;5033221;28;20172;-59
2022/03/27 01:50:32;;;;;;;10.37;4.80;;;;;;;19.52;50.82;101330.91;5032813;28;20515;-59
2022/03/27 01:52:57;;;;;;;8.00;4.80;;;;;;;19.54;50.36;101334.25;5033330;28;20196;-59
2022/03/27 01:55:23;;;;;;;12.57;4.20;;;;;;;19.55;50.44;101335.06;5014331;28;20273;-59
2022/03/27 01:57:48;;;;;;;8.43;4.53;;;;;;;19.53;50.54;101329.72;5032806;28;20267;-58
2022/03/27 02:00:14;;;;;;;17.40;4.27;;;;;;;19.52;50.53;101339.50;5032357;28;20220;-59
2022/03/27 02:02:40;;;;;;;9.53;4.03;;;;;;;19.55;50.78;101337.94;5033253;28;20575;-59
2022/03/27 02:05:06;;;;;;;9.43;4.33;;;;;;;19.52;50.54;101342.34;5015208;28;20627;-58
2022/03/27 02:07:39;;;;;;;8.27;3.60;;;;;;;19.50;50.77;101335.31;5033186;28;20418;-59
2022/03/27 02:10:04;;;;;;;7.63;3.23;;;;;;;19.53;50.54;101346.06;5032557;28;20211;-59
2022/03/27 02:12:34;;;;;;;6.23;3.93;;;;;;;19.51;50.88;101343.56;5031595;28;20461;-58
2022/03/27 02:14:59;;;;;;;8.67;4.07;;;;;;;19.50;50.98;101349.66;5032135;28;20208;-58
2022/03/27 02:17:25;;;;;;;7.90;4.23;;;;;;;19.52;50.67;101347.28;5032664;28;20454;-59
2022/03/27 02:19:50;;;;;;;8.30;4.40;;;;;;;19.52;50.55;101350.13;5032351;28;20187;-59
2022/03/27 02:22:16;;;;;;;10.47;4.20;;;;;;;19.49;50.62;101347.97;5032641;28;20183;-59
2022/03/27 02:24:41;;;;;;;10.00;3.47;;;;;;;19.48;50.55;101344.31;5032884;28;20164;-58
2022/03/27 02:27:07;;;;;;;8.67;4.13;;;;;;;19.49;50.67;101345.97;5032422;28;20226;-59
2022/03/27 02:29:32;;;;;;;8.87;3.50;;;;;;;19.48;50.71;101338.56;5032629;28;20255;-58
2022/03/27 02:31:58;;;;;;;9.03;4.00;;;;;;;19.50;50.83;101341.06;5032456;28;20183;-59
2022/03/27 02:34:23;;;;;;;11.00;4.50;;;;;;;19.48;51.04;101338.56;5032442;28;20163;-58
2022/03/27 02:36:48;;;;;;;9.13;4.03;;;;;;;19.49;50.77;101336.53;5032160;28;20192;-59
2022/03/27 02:39:14;;;;;;;7.93;3.97;;;;;;;19.48;50.68;101340.59;5032289;28;20176;-58
2022/03/27 02:41:39;;;;;;;7.07;3.33;;;;;;;19.48;50.69;101344.31;5032297;28;20168;-59
2022/03/27 02:44:05;;;;;;;7.33;3.50;;;;;;;19.48;50.59;101344.31;5032522;28;20187;-59
2022/03/27 02:46:30;;;;;;;9.03;4.40;;;;;;;19.48;50.62;101344.31;5031726;28;20236;-58
2022/03/27 02:48:56;;;;;;;8.63;3.90;;;;;;;19.48;50.70;101337.72;5031842;28;20513;-59
2022/03/27 02:51:21;;;;;;;8.27;3.70;;;;;;;19.47;50.83;101344.66;5032262;28;20198;-59
2022/03/27 02:53:46;;;;;;;11.20;4.10;;;;;;;19.46;50.64;101346.69;5031259;28;20531;-59
2022/03/27 02:56:12;;;;;;;8.60;3.60;;;;;;;19.46;50.68;101346.69;5032157;28;20205;-59
2022/03/27 02:58:37;;;;;;;8.53;3.80;;;;;;;19.47;50.78;101339.75;5032075;28;20175;-59
2022/03/27 03:01:03;;;;;;;10.33;4.50;;;;;;;19.47;50.55;101339.75;5031821;28;20172;-57
2022/03/27 03:03:29;;;;;;;7.97;4.00;;;;;;;19.46;50.73;101338.09;5031642;28;20173;-59
2022/03/27 03:05:55;;;;;;;6.40;4.33;;;;;;;19.47;50.71;101344.66;5032006;28;20446;-59
2022/03/27 03:08:20;;;;;;;5.97;3.53;;;;;;;19.46;50.63;101343.81;5031688;28;20184;-59
2022/03/27 03:10:46;;;;;;;6.77;4.10;;;;;;;19.47;50.74;101348.34;5031902;28;20175;-59
2022/03/27 03:13:11;;;;;;;7.77;3.67;;;;;;;19.45;50.89;101342.16;5031907;28;20176;-59
2022/03/27 03:15:41;;;;;;;8.67;3.30;;;;;;;19.47;51.20;101344.66;5031640;28;20254;-59
2022/03/27 03:18:08;;;;;;;7.50;3.70;;;;;;;19.48;50.66;101352.06;5031228;28;20185;-58
2022/03/27 03:20:35;;;;;;;7.30;3.90;;;;;;;19.47;50.62;101347.53;5031736;28;20439;-59
2022/03/27 03:23:01;;;;;;;6.00;3.90;;;;;;;19.47;50.61;101353.25;5031586;28;20433;-59
2022/03/27 03:25:26;;;;;;;7.60;3.50;;;;;;;19.47;50.77;101354.06;5030701;28;20395;-58
2022/03/27 03:27:52;;;;;;;8.63;3.93;;;;;;;19.45;50.67;101345.00;5031196;28;20188;-59
2022/03/27 03:30:17;;;;;;;8.07;4.00;;;;;;;19.46;50.63;101346.69;5031488;28;20192;-58
2022/03/27 03:32:43;;;;;;;6.37;3.30;;;;;;;19.46;50.63;101354.44;5031360;28;20543;-59
2022/03/27 03:35:09;;;;;;;9.20;3.30;;;;;;;19.46;50.81;101357.31;5030790;28;20192;-59
2022/03/27 03:37:35;;;;;;;6.93;4.30;;;;;;;19.45;50.70;101355.63;5031073;28;20918;-58
2022/03/27 03:40:00;;;;;;;8.47;4.13;;;;;;;19.44;50.73;101360.53;5031528;28;20250;-59
2022/03/27 03:42:26;;;;;;;9.33;4.33;;;;;;;19.43;50.91;101356.00;5031658;28;20172;-59
2022/03/27 03:44:51;;;;;;;7.47;3.90;;;;;;;19.44;50.81;101353.97;5031323;28;20195;-59
2022/03/27 03:47:17;;;;;;;5.80;3.07;;;;;;;19.44;50.76;101359.69;5030853;28;20231;-59
2022/03/27 03:49:42;;;;;;;8.43;3.40;;;;;;;19.45;50.65;101359.34;5031328;28;20179;-58
2022/03/27 03:52:08;;;;;;;4.97;3.00;;;;;;;19.45;50.84;101353.59;5029875;28;20184;-58
2022/03/27 03:54:34;;;;;;;5.80;3.33;;;;;;;19.42;50.82;101348.59;5012506;28;20176;-59
2022/03/27 03:57:04;;;;;;;6.47;3.40;;;;;;;19.45;50.69;101349.91;5030763;28;20277;-59
2022/03/27 03:59:32;;;;;;;7.57;3.10;;;;;;;19.43;50.23;101350.28;5032755;28;20509;-58
2022/03/27 04:01:58;;;;;;;10.17;3.70;;;;;;;19.42;50.73;101354.31;5034514;28;20430;-59
2022/03/27 04:04:24;;;;;;;8.40;4.10;;;;;;;19.44;50.50;101345.38;5034803;28;20972;-58
2022/03/27 04:06:49;;;;;;;7.70;3.40;;;;;;;19.43;50.67;101347.41;5035399;28;20164;-59
2022/03/27 04:09:14;;;;;;;8.17;3.53;;;;;;;19.43;50.86;101356.00;5035092;28;20180;-59
2022/03/27 04:11:40;;;;;;;8.70;3.73;;;;;;;19.42;50.81;101351.44;5035149;28;20177;-59
2022/03/27 04:14:06;;;;;;;6.77;3.30;;;;;;;19.43;50.83;101353.16;5035244;28;20180;-58
2022/03/27 04:16:31;;;;;;;4.90;2.93;;;;;;;19.42;50.86;101357.19;5034729;28;21108;-58
2022/03/27 04:18:57;;;;;;;6.63;3.93;;;;;;;19.43;50.72;101353.16;5034809;28;20173;-59
2022/03/27 04:21:22;;;;;;;6.40;3.57;;;;;;;19.43;50.75;101355.16;5034831;28;20180;-59
2022/03/27 04:23:48;;;;;;;6.93;3.60;;;;;;;19.41;50.89;101357.56;5034826;28;20176;-59
2022/03/27 04:26:13;;;;;;;5.63;3.90;;;;;;;19.41;50.91;101352.66;5034892;28;20164;-59
2022/03/27 04:28:39;;;;;;;6.20;3.40;;;;;;;19.42;50.86;101354.31;5034808;28;20509;-59
2022/03/27 04:31:04;;;;;;;6.90;3.27;;;;;;;19.42;50.78;101362.91;5034453;28;20581;-59
2022/03/27 04:33:30;;;;;;;8.57;3.50;;;;;;;19.43;50.65;101356.00;5034969;28;20604;-58
2022/03/27 04:35:55;;;;;;;7.87;3.67;;;;;;;19.41;50.74;101355.53;5034753;28;20242;-58
2022/03/27 04:38:21;;;;;;;6.87;3.60;;;;;;;19.41;50.74;101364.09;5034743;28;20263;-58
2022/03/27 04:40:46;;;;;;;5.87;3.40;;;;;;;19.41;50.87;101361.25;5034511;28;20173;-58
2022/03/27 04:43:12;;;;;;;5.70;3.03;;;;;;;19.40;51.09;101359.59;5034609;28;20207;-58
2022/03/27 04:45:37;;;;;;;6.27;3.27;;;;;;;19.39;50.84;101357.94;5034122;28;20192;-58
2022/03/27 04:48:03;;;;;;;6.67;4.00;;;;;;;19.40;50.95;101353.00;5034492;28;20219;-58
2022/03/27 04:50:29;;;;;;;7.20;3.60;;;;;;;19.40;50.86;101358.75;5034144;28;20223;-59
2022/03/27 04:52:54;;;;;;;6.23;3.10;;;;;;;19.40;50.99;101371.03;5034403;28;20431;-58
2022/03/27 04:55:20;;;;;;;7.17;3.50;;;;;;;19.40;50.88;101358.75;5033656;28;20553;-58
2022/03/27 04:57:45;;;;;;;6.27;3.10;;;;;;;19.40;50.81;101359.59;5034459;28;20168;-59
2022/03/27 05:00:15;;;;;;;6.17;2.97;;;;;;;19.38;50.91;101364.00;5033807;28;20188;-58
2022/03/27 05:02:42;;;;;;;6.13;3.07;;;;;;;19.37;50.83;101365.22;5034121;28;20193;-58
2022/03/27 05:05:10;;;;;;;7.00;3.43;;;;;;;19.39;50.84;101368.53;5034020;28;20550;-58
2022/03/27 05:07:36;;;;;;;5.50;3.00;;;;;;;19.38;50.89;101356.25;5034173;28;20486;-58
2022/03/27 05:10:03;;;;;;;6.53;3.50;;;;;;;19.39;50.79;101369.38;5033869;28;20813;-58
2022/03/27 05:12:28;;;;;;;7.00;3.07;;;;;;;19.36;50.48;101355.75;5033865;28;20422;-58
2022/03/27 05:14:54;;;;;;;9.20;3.30;;;;;;;19.38;50.97;101359.13;5033815;28;20474;-58
2022/03/27 05:17:19;;;;;;;6.93;3.50;;;;;;;19.38;51.07;101367.72;5033569;28;20176;-59
2022/03/27 05:19:45;;;;;;;7.63;3.30;;;;;;;19.38;50.99;101362.00;5032469;28;20169;-59
2022/03/27 05:22:10;;;;;;;5.60;3.43;;;;;;;19.39;50.86;101363.66;5032491;28;20181;-58
2022/03/27 05:24:36;;;;;;;6.23;3.23;;;;;;;19.38;50.94;101362.00;5034074;28;20226;-59
2022/03/27 05:27:01;;;;;;;8.90;3.40;;;;;;;19.38;50.72;101362.00;5033196;28;20169;-59
2022/03/27 05:29:26;;;;;;;6.20;3.20;;;;;;;19.39;50.86;101365.66;5033097;28;20177;-58
2022/03/27 05:31:52;;;;;;;6.67;3.60;;;;;;;19.38;50.86;101372.59;5033548;28;20181;-59
2022/03/27 05:34:18;;;;;;;6.40;3.23;;;;;;;19.37;50.72;101373.78;5033706;28;20180;-59
2022/03/27 05:36:43;;;;;;;5.23;3.33;;;;;;;19.37;50.97;101376.66;5033628;28;20192;-59
2022/03/27 05:39:09;;;;;;;5.20;3.57;;;;;;;19.38;50.73;101376.31;5033129;28;20176;-58
2022/03/27 05:41:34;;;;;;;5.93;3.50;;;;;;;19.37;50.98;101383.19;5033525;28;20160;-58
2022/03/27 05:44:00;;;;;;;7.30;3.40;;;;;;;19.39;50.60;101388.56;5033339;28;20272;-59
2022/03/27 05:46:25;;;;;;;5.07;3.03;;;;;;;19.39;50.77;101392.28;5033040;28;20598;-59
2022/03/27 05:48:51;;;;;;;6.20;3.00;;;;;;;19.38;50.85;101393.50;5033349;28;20169;-59
2022/03/27 05:51:16;;;;;;;7.37;3.70;;;;;;;19.39;50.64;101398.00;5032916;28;20240;-59
2022/03/27 05:53:43;;;;;;;7.50;3.57;;;;;;;19.38;50.87;101395.50;5032698;28;20516;-59
2022/03/27 05:56:09;;;;;;;5.00;2.83;;;;;;;19.37;50.66;101399.56;5032887;28;20587;-59
2022/03/27 05:58:35;;;;;;;5.93;3.13;;;;;;;19.38;50.79;101396.34;5032949;28;20433;-59
2022/03/27 06:01:00;;;;;;;6.17;3.00;;;;;;;19.37;50.79;101402.44;5032976;28;20396;-59
2022/03/27 06:03:26;;;;;;;6.33;3.63;;;;;;;19.37;50.88;101406.13;5032748;28;20944;-58
2022/03/27 06:05:52;;;;;;;5.70;3.10;;;;;;;19.36;50.83;101404.44;5032813;28;20165;-59
2022/03/27 06:08:17;;;;;;;5.20;3.00;;;;;;;19.38;50.88;101413.53;5033062;28;20172;-58
2022/03/27 06:10:43;;;;;;;6.23;3.13;;;;;;;19.37;50.78;101411.84;5032914;28;20164;-58
2022/03/27 06:13:10;;;;;;;7.00;3.60;;;;;;;19.37;50.82;101417.56;5032696;28;20178;-58
2022/03/27 06:15:35;;;;;;;5.23;2.97;;;;;;;19.39;50.61;101417.22;5032695;28;20200;-59
2022/03/27 06:18:01;;;;;;;7.40;3.70;;;;;;;19.37;50.86;101420.44;5032645;28;20440;-59
2022/03/27 06:20:28;;;;;;;4.10;2.80;;;;;;;19.37;50.87;101417.56;5032517;28;20208;-58
2022/03/27 06:22:54;;;;;;;4.30;2.77;;;;;;;19.37;50.87;101417.56;5031830;28;20263;-58
2022/03/27 06:25:22;;;;;;;6.30;3.27;;;;;;;19.38;50.70;101421.28;5031733;28;20510;-58
2022/03/27 06:27:50;;;;;;;5.23;2.57;;;;;;;19.36;50.60;101424.50;5014721;28;20263;-59
2022/03/27 06:30:17;;;;;;;4.10;2.63;;;;;;;19.38;50.76;101425.00;5032515;28;20772;-58
2022/03/27 06:32:43;;;;;;;4.33;2.90;;;;;;;19.39;50.74;101425.81;5032617;28;20900;-58
2022/03/27 06:35:10;;;;;;;7.23;3.53;;;;;;;19.36;50.73;101427.34;5032261;28;20457;-58
2022/03/27 06:37:36;;;;;;;5.80;2.97;;;;;;;19.36;50.92;101427.34;5032440;28;20937;-59
2022/03/27 06:40:02;;;;;;;4.60;2.87;;;;;;;19.36;50.62;101424.50;5032039;28;20424;-59
2022/03/27 06:42:27;;;;;;;6.10;2.60;;;;;;;19.37;50.83;101433.94;5032422;28;20242;-59
2022/03/27 06:44:54;;;;;;;6.20;2.80;;;;;;;19.36;51.01;101433.09;5032017;28;20196;-59
2022/03/27 06:47:20;;;;;;;5.57;3.20;;;;;;;19.36;50.90;101433.09;5031955;28;20263;-59
2022/03/27 06:49:45;;;;;;;6.20;3.03;;;;;;;19.37;50.84;101439.66;5032116;28;20439;-59
2022/03/27 06:52:11;;;;;;;6.03;2.93;;;;;;;19.36;50.96;101435.94;5032213;28;20655;-59
2022/03/27 06:54:37;;;;;;;4.13;3.00;;;;;;;19.37;50.63;101445.38;5031228;28;20187;-59
2022/03/27 06:57:02;;;;;;;4.60;3.30;;;;;;;19.39;50.54;101440.97;5031906;28;20572;-58
2022/03/27 06:59:28;;;;;;;4.10;2.80;;;;;;;19.38;50.78;101441.31;5031597;28;20221;-58
2022/03/27 07:04:37;;;;;;;5.53;3.07;;;;;;;19.38;50.76;101447.91;5031929;28;20171;-58
2022/03/27 07:07:03;;;;;;;6.40;3.00;;;;;;;19.38;50.70;101444.19;5032025;28;20396;-59
2022/03/27 07:09:28;;;;;;;5.63;3.20;;;;;;;19.38;50.81;101442.16;5031987;28;20511;-59
2022/03/27 07:11:54;;;;;;;5.10;2.60;;;;;;;19.38;50.80;101444.19;5031403;28;20179;-59
2022/03/27 07:14:19;;;;;;;9.50;3.50;;;;;;;19.38;50.80;101445.03;5031543;28;20172;-58
2022/03/27 07:16:45;;;;;;;5.30;3.03;;;;;;;19.38;50.72;101442.16;5031047;28;20203;-59
2022/03/27 07:19:10;;;;;;;4.80;2.90;;;;;;;19.38;50.72;101445.03;5031706;28;20176;-59
2022/03/27 07:21:40;;;;;;;4.80;2.60;;;;;;;19.36;50.87;101441.69;5030866;28;20678;-58
2022/03/27 07:24:06;;;;;;;4.27;2.87;;;;;;;19.36;50.79;101438.81;5030912;28;20635;-59
2022/03/27 07:26:31;;;;;;;4.80;2.97;;;;;;;19.36;51.31;101435.13;5031436;28;20474;-58
2022/03/27 07:28:57;;;;;;;3.70;2.23;;;;;;;19.37;50.82;101440.47;5031314;28;20541;-59
2022/03/27 07:31:23;;;;;;;5.90;3.17;;;;;;;19.36;50.64;101438.81;5031477;28;20173;-58
2022/03/27 07:33:49;;;;;;;7.10;3.40;;;;;;;19.37;50.98;101443.34;5030490;28;20639;-59
2022/03/27 07:36:14;;;;;;;5.20;2.80;;;;;;;19.37;50.82;101445.38;5031187;28;20470;-58
2022/03/27 07:38:40;;;;;;;3.50;2.47;;;;;;;19.36;50.73;101450.25;5030657;28;20172;-59
2022/03/27 07:41:05;;;;;;;6.13;3.20;;;;;;;19.40;50.66;101441.78;5030341;28;20171;-58
2022/03/27 07:43:32;;;;;;;5.03;2.70;;;;;;;19.37;50.76;101439.66;5030373;28;20164;-58
2022/03/27 07:45:57;;;;;;;5.03;2.70;;;;;;;19.36;50.69;101440.84;5030655;28;20212;-59
2022/03/27 07:48:23;;;;;;;4.53;2.70;;;;;;;19.38;50.66;101435.59;5031585;28;20435;-59
2022/03/27 07:50:54;;;;;;;4.80;2.80;;;;;;;19.35;51.03;101440.00;5031152;28;20184;-59
2022/03/27 07:53:20;;;;;;;4.77;2.83;;;;;;;19.36;50.78;101438.81;5031155;28;20164;-59
2022/03/27 07:55:45;;;;;;;5.97;3.50;;;;;;;19.37;50.76;101436.78;5031053;28;20450;-59
2022/03/27 07:58:10;;;;;;;3.90;2.90;;;;;;;19.40;50.64;101445.50;5031048;28;20176;-59
2022/03/27 08:00:36;;;;;;;4.57;2.73;;;;;;;19.38;50.58;101452.78;5029439;28;20183;-59
2022/03/27 08:03:02;;;;;;;5.37;2.77;;;;;;;19.37;50.63;101446.19;5030390;28;20188;-59
2022/03/27 08:05:27;;;;;;;5.27;2.90;;;;;;;19.40;51.06;101444.66;5030936;28;20657;-59
2022/03/27 08:07:53;;;;;;;4.33;2.80;;;;;;;19.38;50.87;101444.19;5031046;28;20427;-59
2022/03/27 08:10:19;;;;;;;5.00;3.07;;;;;;;19.38;50.48;101438.47;5030607;28;20214;-59
2022/03/27 08:12:46;;;;;;;5.03;2.87;;;;;;;19.37;50.78;101440.47;5030991;28;20274;-59
2022/03/27 08:15:11;;;;;;;4.23;2.90;;;;;;;19.38;50.76;101439.31;5030012;28;20180;-59
2022/03/27 08:17:37;;;;;;;5.10;2.50;;;;;;;19.36;50.82;101440.84;5030744;28;20791;-59
2022/03/27 08:20:03;;;;;;;3.07;2.03;;;;;;;19.37;50.77;101440.47;5030983;28;20185;-59
2022/03/27 08:22:28;;;;;;;4.17;2.63;;;;;;;19.37;50.70;101437.59;5030166;28;20172;-59
2022/03/27 08:24:54;;;;;;;5.63;2.87;;;;;;;19.37;50.68;101442.53;5030092;28;20184;-59
2022/03/27 08:27:20;;;;;;;15.63;3.37;;;;;;;19.37;50.69;101445.38;5031161;28;20177;-59
2022/03/27 08:29:45;;;;;;;5.37;2.43;;;;;;;19.40;50.65;101436.06;5030812;28;20624;-59
2022/03/27 08:32:12;;;;;;;4.87;3.07;;;;;;;19.38;50.75;101439.31;5030756;28;20485;-59
2022/03/27 08:34:38;;;;;;;3.90;2.80;;;;;;;19.39;50.76;101443.84;5031237;28;20176;-59
2022/03/27 08:37:05;;;;;;;5.33;3.50;;;;;;;19.36;50.73;101441.69;5030785;28;20446;-58
2022/03/27 08:39:31;;;;;;;4.73;2.83;;;;;;;19.36;50.71;101444.53;5031009;28;20921;-59
2022/03/27 08:41:56;;;;;;;4.10;2.57;;;;;;;19.36;50.72;101444.53;5029727;28;20411;-59
2022/03/27 08:44:24;;;;;;;4.87;2.70;;;;;;;19.37;50.64;101440.47;5030474;28;20204;-59
2022/03/27 08:46:51;;;;;;;5.27;2.53;;;;;;;19.38;50.67;101442.16;5032601;28;20259;-59
2022/03/27 08:49:34;;;;;;;3.97;2.23;;;;;;;19.37;50.64;101446.19;5034251;28;20425;-59
2022/03/27 08:52:08;;;;;;;4.63;2.50;;;;;;;19.37;50.50;101437.59;5034391;28;20411;-59
2022/03/27 08:54:41;;;;;;;4.50;2.60;;;;;;;19.38;50.50;101436.44;5033757;28;20469;-59
2022/03/27 08:57:20;;;;;;;4.97;2.90;;;;;;;19.38;50.68;101435.59;5034107;28;20462;-59
2022/03/27 08:59:46;;;;;;;4.00;2.70;;;;;;;19.37;50.61;101440.47;5033244;28;20496;-59
2022/03/27 09:02:13;;;;;;;4.07;2.40;;;;;;;19.36;50.88;101438.81;5024607;28;20420;-59
2022/03/27 09:04:38;;;;;;;5.97;2.67;;;;;;;19.38;50.75;101436.44;5014641;28;20670;-59
2022/03/27 09:07:04;;;;;;;4.67;2.77;;;;;;;19.37;50.83;101437.59;5031714;28;20415;-59
2022/03/27 09:09:33;;;;;;;6.60;2.83;;;;;;;19.38;50.79;101439.31;5033830;28;20176;-59
2022/03/27 09:11:59;;;;;;;4.37;2.60;;;;;;;19.39;50.55;101452.44;5032225;28;20176;-58
2022/03/27 09:14:24;;;;;;;4.43;2.50;;;;;;;19.40;50.79;101456.94;5016531;28;20432;-59
2022/03/27 09:17:02;;;;;;;4.67;2.40;;;;;;;19.38;50.67;101444.19;5016003;28;20216;-59
2022/03/27 09:19:34;;;;;;;4.70;2.67;;;;;;;19.36;50.55;101438.81;5033974;28;20717;-59
2022/03/27 09:22:10;;;;;;;5.60;3.10;;;;;;;19.38;50.65;101447.91;5033639;28;20425;-59
2022/03/27 09:24:35;;;;;;;4.10;2.60;;;;;;;19.39;50.79;101451.56;5031967;28;20423;-59
2022/03/27 09:27:01;;;;;;;3.90;2.67;;;;;;;19.38;50.82;101449.91;5033638;28;20434;-58
2022/03/27 09:29:26;;;;;;;4.17;2.57;;;;;;;19.38;50.68;101452.78;5032562;28;20180;-59
2022/03/27 09:31:58;;;;;;;4.90;2.90;;;;;;;19.37;50.83;101451.94;5032696;28;20544;-59
2022/03/27 09:34:23;;;;;;;6.33;2.60;;;;;;;19.36;50.67;101455.19;5033665;28;20666;-59
2022/03/27 09:36:50;;;;;;;5.50;2.80;;;;;;;19.37;50.78;101442.53;5033530;28;20439;-59
2022/03/27 09:39:20;;;;;;;3.47;2.50;;;;;;;19.39;50.61;101446.69;5033801;28;20172;-59
2022/03/27 09:41:59;;;;;;;4.80;2.60;;;;;;;19.38;50.66;101435.59;5033482;28;20477;-59
2022/03/27 09:44:36;;;;;;;4.10;2.60;;;;;;;19.36;51.09;101433.09;5033670;28;20857;-58
2022/03/27 09:47:11;;;;;;;4.53;2.73;;;;;;;19.37;50.89;101442.53;5033007;28;20459;-58
2022/03/27 09:49:39;;;;;;;3.67;2.43;;;;;;;19.36;50.72;101427.34;5033057;28;20480;-59
2022/03/27 09:52:15;;;;;;;6.27;3.00;;;;;;;19.38;50.80;101427.00;5017353;28;20431;-60
2022/03/27 09:54:59;;;;;;;4.30;2.40;;;;;;;19.39;50.75;101420.94;5032524;28;20415;-59
2022/03/27 09:57:33;;;;;;;5.07;3.03;;;;;;;19.38;50.71;101425.00;5032275;28;20442;-59
2022/03/27 10:00:15;;;;;;;3.70;2.70;;;;;;;19.35;50.99;101413.41;5015527;28;20473;-59
2022/03/27 10:02:41;;;;;;;4.70;2.80;;;;;;;19.35;50.73;101411.38;5016932;28;20446;-59
2022/03/27 10:05:11;;;;;;;3.80;2.40;;;;;;;19.36;50.71;101418.78;5033093;28;20525;-59
2022/03/27 10:07:41;;;;;;;3.33;2.40;;;;;;;19.39;50.67;101411.50;5032750;28;20419;-59
2022/03/27 10:10:08;;;;;;;3.93;2.70;;;;;;;19.36;51.03;101415.09;5033013;28;20414;-59
2022/03/27 10:12:34;;;;;;;6.50;2.63;;;;;;;19.40;50.60;101411.13;5032108;28;20426;-58
2022/03/27 10:15:08;;;;;;;4.10;2.30;;;;;;;19.40;50.87;101404.56;5031984;28;20403;-58
2022/03/27 10:17:35;;;;;;;4.73;2.47;;;;;;;19.35;50.74;101397.06;5032598;28;20485;-59
2022/03/27 10:20:08;;;;;;;3.50;2.30;;;;;;;19.38;50.95;101392.63;5032021;28;20439;-59
2022/03/27 10:22:39;;;;;;;5.13;2.60;;;;;;;19.37;50.67;101393.84;5014379;28;20420;-59
2022/03/27 10:25:05;;;;;;;3.80;2.90;;;;;;;19.37;50.75;101394.66;5024592;28;20929;-59
2022/03/27 10:27:30;;;;;;;5.20;2.70;;;;;;;19.38;50.77;101390.63;5032705;28;20514;-59
2022/03/27 10:29:56;;;;;;;4.47;2.80;;;;;;;19.36;50.81;101381.53;5032681;28;20430;-59
2022/03/27 10:32:22;;;;;;;4.60;2.57;;;;;;;19.39;50.49;101391.44;5032401;28;20183;-58
2022/03/27 10:35:17;;;;;;;6.17;2.30;;;;;;;19.42;50.50;101382.97;5014704;28;20899;-59
2022/03/27 10:38:12;;;;;;;4.93;2.37;;;;;;;19.45;50.73;101379.38;5015854;28;20223;-59
2022/03/27 10:41:05;;;;;;;6.00;2.60;;;;;;;19.43;50.53;101372.34;5031453;28;20846;-57
2022/03/27 10:43:53;;;;;;;5.67;3.60;;;;;;;19.39;50.46;101371.41;4999293;28;20447;-58
2022/03/27 10:46:26;;;;;;;5.13;2.60;;;;;;;19.38;50.75;101372.59;5018968;28;20459;-58
2022/03/27 10:48:53;;;;;;;4.43;2.90;;;;;;;19.38;50.73;101367.72;5032388;28;20414;-58
2022/03/27 10:51:24;;;;;;;5.93;3.47;;;;;;;19.42;50.57;101360.03;5032117;28;20637;-58
2022/03/27 10:54:09;;;;;;;8.90;3.30;;;;;;;19.42;50.55;101368.63;5031518;28;20477;-58
2022/03/27 10:56:36;;;;;;;9.07;3.20;;;;;;;19.44;50.53;101368.28;5031960;28;20525;-58
2022/03/27 10:59:09;;;;;;;6.90;3.23;;;;;;;19.43;50.56;101358.03;5014253;28;20553;-57
2022/03/27 11:01:40;;;;;;;7.40;2.60;;;;;;;19.42;50.52;101354.31;5027271;28;20471;-58
2022/03/27 11:04:13;;;;;;;5.47;2.73;;;;;;;19.42;50.61;101359.22;5012471;28;20412;-58
2022/03/27 11:06:43;;;;;;;7.23;2.60;;;;;;;19.44;50.47;101351.09;5012098;28;20837;-58
2022/03/27 11:09:12;;;;;;;5.10;2.70;;;;;;;19.44;50.51;101343.34;5020128;28;20422;-57
2022/03/27 11:11:37;;;;;;;9.67;2.70;;;;;;;19.45;50.50;101345.00;5031714;28;20497;-57
2022/03/27 11:14:07;;;;;;;6.53;2.93;;;;;;;19.45;50.49;101344.16;5032025;28;20566;-58
2022/03/27 11:16:37;;;;;;;5.17;2.50;;;;;;;19.45;51.40;101347.88;5029995;28;20257;-58
2022/03/27 11:19:03;;;;;;;7.37;2.73;;;;;;;19.45;50.83;101345.00;5031296;28;20423;-58
2022/03/27 11:21:28;;;;;;;4.40;2.60;;;;;;;19.46;50.55;101340.94;5031363;28;20442;-58
2022/03/27 11:23:57;;;;;;;4.77;2.50;;;;;;;19.47;50.81;101339.75;5031713;28;20270;-57
2022/03/27 11:26:35;;;;;;;8.23;2.80;;;;;;;19.47;50.54;101336.88;5031036;28;20173;-58
2022/03/27 11:29:10;;;;;;;6.10;2.10;;;;;;;19.48;50.58;101332.84;5031531;28;20403;-58